createdAt,value
2022-09-01T00:00:01.082Z,12.63
2022-09-01T00:01:03.560Z,12.80
2022-09-01T00:02:06.557Z,12.74
2022-09-01T00:03:08.662Z,12.65
2022-09-01T00:04:13.750Z,12.68
2022-09-01T00:05:15.395Z,12.61
2022-09-01T00:06:16.904Z,12.58
2022-09-01T00:07:18.409Z,12.63
2022-09-01T00:08:20.134Z,12.55
2022-09-01T00:09:23.386Z,12.55
2022-09-01T00:10:25.204Z,12.56
2022-09-01T00:11:28.619Z,12.48
2022-09-01T00:12:30.430Z,12.57
2022-09-01T00:13:32.045Z,12.52
2022-09-01T00:14:40.998Z,12.47
2022-09-01T00:15:43.829Z,12.48
2022-09-01T00:16:45.356Z,12.50
2022-09-01T00:17:49.415Z,12.52
2022-09-01T00:18:53.045Z,12.53
2022-09-01T00:19:55.918Z,12.47
2022-09-01T00:20:57.747Z,12.51
2022-09-01T00:22:00.373Z,12.46
2022-09-01T00:23:02.028Z,12.45
2022-09-01T00:24:04.721Z,12.42
2022-09-01T00:25:07.256Z,12.60
2022-09-01T00:26:09.003Z,12.56
2022-09-01T00:27:10.495Z,12.47
2022-09-01T00:28:12.011Z,12.59
2022-09-01T00:29:13.741Z,12.55
2022-09-01T00:30:15.478Z,12.43
2022-09-01T00:31:17.748Z,12.45
2022-09-01T00:32:19.344Z,12.44
2022-09-01T00:33:20.858Z,12.42
2022-09-01T00:34:22.667Z,12.35
2022-09-01T00:35:25.909Z,12.46
2022-09-01T00:36:27.740Z,12.49
2022-09-01T00:37:29.255Z,12.40
2022-09-01T00:38:31.328Z,12.47
2022-09-01T00:39:32.828Z,12.33
2022-09-01T00:40:34.478Z,12.31
2022-09-01T00:41:39.063Z,12.35
2022-09-01T00:42:41.730Z,12.38
2022-09-01T00:43:46.251Z,12.41
2022-09-01T00:44:48.037Z,12.36
2022-09-01T00:45:50.089Z,12.41
2022-09-01T00:46:56.009Z,12.42
2022-09-01T00:47:57.568Z,12.42
2022-09-01T00:49:05.029Z,12.48
2022-09-01T00:50:08.781Z,12.52
2022-09-01T00:51:13.204Z,12.48
2022-09-01T00:52:18.993Z,12.50
2022-09-01T00:53:20.736Z,12.63
2022-09-01T00:54:25.886Z,12.69
2022-09-01T00:55:30.404Z,12.71
2022-09-01T00:56:37.913Z,12.71
2022-09-01T00:57:40.032Z,12.82
2022-09-01T00:58:42.356Z,12.81
2022-09-01T00:59:58.904Z,12.76
2022-09-01T01:01:00.521Z,12.73
2022-09-01T01:02:02.145Z,12.84
2022-09-01T01:03:04.015Z,12.85
2022-09-01T01:04:07.600Z,12.95
2022-09-01T01:05:14.199Z,13.07
2022-09-01T01:06:19.150Z,13.02
2022-09-01T01:07:21.848Z,13.05
2022-09-01T01:08:26.655Z,12.99
2022-09-01T01:09:31.762Z,12.84
2022-09-01T01:10:36.767Z,12.87
2022-09-01T01:11:39.737Z,12.77
2022-09-01T01:12:41.942Z,12.84
2022-09-01T01:13:52.038Z,12.89
2022-09-01T01:14:53.518Z,12.75
2022-09-01T01:15:55.037Z,12.83
2022-09-01T01:17:00.234Z,12.84
2022-09-01T01:18:01.800Z,12.83
2022-09-01T01:19:04.471Z,12.79
2022-09-01T01:20:08.320Z,12.87
2022-09-01T01:21:17.712Z,12.88
2022-09-01T01:22:27.359Z,12.77
2022-09-01T01:23:34.091Z,12.96
2022-09-01T01:24:36.917Z,12.88
2022-09-01T01:25:40.913Z,12.85
2022-09-01T01:26:42.398Z,12.84
2022-09-01T01:27:43.897Z,12.87
2022-09-01T01:28:45.432Z,12.88
2022-09-01T01:29:46.981Z,12.88
2022-09-01T01:30:52.724Z,12.83
2022-09-01T01:31:54.334Z,12.86
2022-09-01T01:32:55.830Z,12.91
2022-09-01T01:33:57.310Z,13.12
2022-09-01T01:34:58.794Z,13.08
2022-09-01T01:36:00.744Z,13.09
2022-09-01T01:37:02.899Z,13.01
2022-09-01T01:38:05.331Z,13.06
2022-09-01T01:39:10.512Z,13.16
2022-09-01T01:40:14.545Z,13.04
2022-09-01T01:41:17.602Z,13.08
2022-09-01T01:42:19.111Z,13.09
2022-09-01T01:43:20.787Z,13.08
2022-09-01T01:44:24.781Z,13.22
2022-09-01T01:45:26.668Z,13.26
2022-09-01T01:46:28.258Z,13.14
2022-09-01T01:47:30.070Z,13.09
2022-09-01T01:48:31.925Z,13.24
2022-09-01T01:49:33.556Z,13.16
2022-09-01T01:50:37.715Z,13.28
2022-09-01T01:51:39.917Z,13.35
2022-09-01T01:52:41.779Z,13.37
2022-09-01T01:53:48.161Z,13.37
2022-09-01T01:54:49.638Z,13.38
2022-09-01T01:55:52.557Z,13.33
2022-09-01T01:56:54.052Z,13.41
2022-09-01T01:57:56.109Z,13.44
2022-09-01T01:58:57.650Z,13.42
2022-09-01T01:59:59.138Z,13.37
2022-09-01T02:01:00.743Z,13.31
2022-09-01T02:02:02.399Z,13.40
2022-09-01T02:03:04.892Z,13.36
2022-09-01T02:04:06.405Z,13.36
2022-09-01T02:05:08.315Z,13.39
2022-09-01T02:06:11.134Z,13.29
2022-09-01T02:07:13.733Z,13.36
2022-09-01T02:08:16.640Z,13.29
2022-09-01T02:09:20.963Z,13.16
2022-09-01T02:10:24.634Z,13.37
2022-09-01T02:11:27.899Z,13.24
2022-09-01T02:12:29.402Z,13.19
2022-09-01T02:13:30.960Z,13.19
2022-09-01T02:14:32.539Z,13.27
2022-09-01T02:15:37.081Z,13.08
2022-09-01T02:16:38.893Z,13.10
2022-09-01T02:17:40.419Z,13.06
2022-09-01T02:18:43.994Z,13.03
2022-09-01T02:19:45.488Z,13.19
2022-09-01T02:20:49.618Z,13.12
2022-09-01T02:21:51.095Z,13.22
2022-09-01T02:22:52.606Z,13.34
2022-09-01T02:23:56.845Z,13.24
2022-09-01T02:24:58.409Z,13.20
2022-09-01T02:26:15.569Z,13.24
2022-09-01T02:27:19.690Z,13.34
2022-09-01T02:28:22.659Z,13.42
2022-09-01T02:29:24.191Z,13.48
2022-09-01T02:30:25.819Z,13.45
2022-09-01T02:31:28.416Z,13.46
2022-09-01T02:32:29.989Z,13.37
2022-09-01T02:33:32.325Z,13.41
2022-09-01T02:34:33.825Z,13.46
2022-09-01T02:35:35.736Z,13.49
2022-09-01T02:36:38.219Z,13.53
2022-09-01T02:37:39.702Z,13.51
2022-09-01T02:38:41.961Z,13.47
2022-09-01T02:39:47.519Z,13.36
2022-09-01T02:40:48.994Z,13.42
2022-09-01T02:41:51.433Z,13.50
2022-09-01T02:42:54.243Z,13.44
2022-09-01T02:43:55.782Z,13.49
2022-09-01T02:44:57.314Z,13.23
2022-09-01T02:46:00.866Z,13.37
2022-09-01T02:47:02.448Z,13.26
2022-09-01T02:48:04.014Z,13.31
2022-09-01T02:49:06.330Z,13.22
2022-09-01T02:50:08.657Z,13.20
2022-09-01T02:51:12.675Z,13.34
2022-09-01T02:52:14.181Z,13.55
2022-09-01T02:53:15.688Z,13.31
2022-09-01T02:54:17.159Z,13.29
2022-09-01T02:55:19.418Z,13.47
2022-09-01T02:56:25.085Z,13.36
2022-09-01T02:57:27.116Z,13.34
2022-09-01T02:58:31.479Z,13.47
2022-09-01T02:59:33.339Z,13.50
2022-09-01T03:00:34.863Z,13.43
2022-09-01T03:01:36.425Z,13.47
2022-09-01T03:02:37.959Z,13.46
2022-09-01T03:03:39.669Z,13.41
2022-09-01T03:04:41.177Z,13.46
2022-09-01T03:05:42.862Z,13.57
2022-09-01T03:06:44.490Z,13.43
2022-09-01T03:07:45.985Z,13.59
2022-09-01T03:08:47.935Z,13.62
2022-09-01T03:09:49.476Z,13.55
2022-09-01T03:10:52.384Z,13.43
2022-09-01T03:11:54.794Z,13.49
2022-09-01T03:12:56.284Z,13.53
2022-09-01T03:13:59.596Z,13.55
2022-09-01T03:15:01.142Z,13.58
2022-09-01T03:16:03.167Z,13.61
2022-09-01T03:17:04.761Z,13.70
2022-09-01T03:18:08.332Z,13.61
2022-09-01T03:19:10.550Z,13.65
2022-09-01T03:20:12.037Z,13.60
2022-09-01T03:21:13.567Z,13.69
2022-09-01T03:22:15.091Z,13.65
2022-09-01T03:23:19.344Z,13.65
2022-09-01T03:24:21.202Z,13.42
2022-09-01T03:25:22.706Z,13.59
2022-09-01T03:26:24.401Z,13.39
2022-09-01T03:27:25.932Z,13.55
2022-09-01T03:28:28.743Z,13.63
2022-09-01T03:29:31.565Z,13.62
2022-09-01T03:30:35.782Z,13.68
2022-09-01T03:31:38.114Z,13.58
2022-09-01T03:32:39.685Z,13.68
2022-09-01T03:33:41.706Z,13.65
2022-09-01T03:34:43.187Z,13.72
2022-09-01T03:35:45.324Z,13.56
2022-09-01T03:36:46.873Z,13.57
2022-09-01T03:37:48.736Z,13.66
2022-09-01T03:38:51.739Z,13.60
2022-09-01T03:39:53.233Z,13.60
2022-09-01T03:41:00.749Z,13.56
2022-09-01T03:42:02.283Z,13.51
2022-09-01T03:43:06.447Z,13.46
2022-09-01T03:44:07.942Z,13.52
2022-09-01T03:45:12.358Z,13.57
2022-09-01T03:46:14.164Z,13.41
2022-09-01T03:47:15.728Z,13.28
2022-09-01T03:48:17.233Z,13.25
2022-09-01T03:49:18.762Z,13.21
2022-09-01T03:50:22.723Z,13.14
2022-09-01T03:51:24.853Z,13.12
2022-09-01T03:52:26.355Z,13.12
2022-09-01T03:53:29.677Z,13.07
2022-09-01T03:54:31.143Z,13.12
2022-09-01T03:55:34.608Z,13.02
2022-09-01T03:56:36.196Z,13.10
2022-09-01T03:57:37.704Z,13.02
2022-09-01T03:58:39.598Z,13.02
2022-09-01T03:59:41.093Z,13.00
2022-09-01T04:00:49.220Z,13.01
2022-09-01T04:01:51.030Z,13.14
2022-09-01T04:02:56.291Z,13.05
2022-09-01T04:03:57.925Z,12.99
2022-09-01T04:04:59.444Z,12.99
2022-09-01T04:06:02.293Z,12.99
2022-09-01T04:07:04.143Z,13.07
2022-09-01T04:08:08.469Z,12.91
2022-09-01T04:09:09.974Z,12.91
2022-09-01T04:10:11.757Z,12.88
2022-09-01T04:11:16.115Z,13.08
2022-09-01T04:12:17.590Z,13.15
2022-09-01T04:13:21.474Z,13.09
2022-09-01T04:14:22.964Z,13.07
2022-09-01T04:15:26.760Z,13.24
2022-09-01T04:16:31.502Z,13.01
2022-09-01T04:17:33.036Z,13.18
2022-09-01T04:18:34.686Z,13.12
2022-09-01T04:19:37.435Z,13.02
2022-09-01T04:20:40.684Z,13.00
2022-09-01T04:21:43.305Z,13.02
2022-09-01T04:22:44.822Z,12.89
2022-09-01T04:23:46.307Z,12.91
2022-09-01T04:24:47.816Z,12.92
2022-09-01T04:25:50.173Z,13.08
2022-09-01T04:26:52.582Z,12.96
2022-09-01T04:27:54.333Z,13.04
2022-09-01T04:28:55.803Z,13.05
2022-09-01T04:29:57.926Z,12.97
2022-09-01T04:31:00.120Z,13.04
2022-09-01T04:32:06.329Z,13.15
2022-09-01T04:33:08.069Z,13.13
2022-09-01T04:34:09.569Z,12.96
2022-09-01T04:35:11.048Z,13.21
2022-09-01T04:36:15.428Z,13.24
2022-09-01T04:37:18.580Z,13.26
2022-09-01T04:38:20.918Z,13.25
2022-09-01T04:39:23.790Z,13.32
2022-09-01T04:40:25.465Z,13.26
2022-09-01T04:41:31.865Z,13.31
2022-09-01T04:42:33.365Z,13.37
2022-09-01T04:43:35.562Z,13.34
2022-09-01T04:44:37.132Z,13.21
2022-09-01T04:45:38.650Z,13.34
2022-09-01T04:46:42.680Z,13.39
2022-09-01T04:47:45.540Z,13.49
2022-09-01T04:48:47.289Z,13.52
2022-09-01T04:49:48.784Z,13.41
2022-09-01T04:50:50.277Z,13.30
2022-09-01T04:51:54.181Z,13.48
2022-09-01T04:52:55.848Z,13.49
2022-09-01T04:53:58.352Z,13.53
2022-09-01T04:54:59.836Z,13.40
2022-09-01T04:56:03.526Z,13.33
2022-09-01T04:57:05.503Z,13.49
2022-09-01T04:58:10.091Z,13.57
2022-09-01T04:59:13.593Z,13.58
2022-09-01T05:00:16.660Z,13.56
2022-09-01T05:01:20.618Z,13.51
2022-09-01T05:02:22.241Z,13.62
2022-09-01T05:03:25.103Z,13.61
2022-09-01T05:04:29.057Z,13.37
2022-09-01T05:05:37.478Z,13.50
2022-09-01T05:06:41.306Z,13.45
2022-09-01T05:07:42.782Z,13.45
2022-09-01T05:08:45.144Z,13.38
2022-09-01T05:09:47.575Z,13.25
2022-09-01T05:10:50.971Z,13.25
2022-09-01T05:11:53.188Z,13.29
2022-09-01T05:12:54.676Z,13.35
2022-09-01T05:13:56.212Z,13.34
2022-09-01T05:14:57.701Z,13.27
2022-09-01T05:16:02.861Z,13.24
2022-09-01T05:17:04.423Z,13.40
2022-09-01T05:18:06.120Z,13.23
2022-09-01T05:19:09.846Z,13.43
2022-09-01T05:20:11.785Z,13.52
2022-09-01T05:21:15.313Z,13.46
2022-09-01T05:22:17.732Z,13.38
2022-09-01T05:23:20.447Z,13.57
2022-09-01T05:24:21.932Z,13.48
2022-09-01T05:25:23.461Z,13.62
2022-09-01T05:26:27.831Z,13.68
2022-09-01T05:27:29.321Z,13.85
2022-09-01T05:28:30.799Z,13.86
2022-09-01T05:29:32.313Z,13.83
2022-09-01T05:30:34.053Z,13.91
2022-09-01T05:31:35.665Z,13.86
2022-09-01T05:32:37.747Z,13.83
2022-09-01T05:33:39.852Z,13.81
2022-09-01T05:34:42.670Z,13.73
2022-09-01T05:35:53.261Z,13.76
2022-09-01T05:36:56.905Z,13.70
2022-09-01T05:37:58.360Z,13.58
2022-09-01T05:39:00.489Z,13.60
2022-09-01T05:40:02.457Z,13.46
2022-09-01T05:41:05.192Z,13.64
2022-09-01T05:42:07.133Z,13.42
2022-09-01T05:43:09.863Z,13.61
2022-09-01T05:44:12.630Z,13.66
2022-09-01T05:45:14.113Z,13.65
2022-09-01T05:46:18.113Z,13.81
2022-09-01T05:47:20.859Z,13.75
2022-09-01T05:48:22.921Z,13.85
2022-09-01T05:49:24.412Z,13.70
2022-09-01T05:50:27.278Z,13.74
2022-09-01T05:51:50.855Z,13.86
2022-09-01T05:52:51.892Z,13.82
2022-09-01T05:53:54.649Z,13.86
2022-09-01T05:54:56.455Z,14.01
2022-09-01T05:55:57.982Z,13.99
2022-09-01T05:57:17.425Z,13.91
2022-09-01T05:58:21.213Z,14.06
2022-09-01T05:59:24.019Z,14.11
2022-09-01T06:00:26.570Z,14.16
2022-09-01T06:01:29.335Z,14.10
2022-09-01T06:02:31.029Z,14.10
2022-09-01T06:03:33.181Z,13.94
2022-09-01T06:04:40.058Z,14.11
2022-09-01T06:05:43.437Z,14.10
2022-09-01T06:07:06.053Z,14.10
2022-09-01T06:08:09.344Z,14.14
2022-09-01T06:09:10.880Z,14.16
2022-09-01T06:10:12.453Z,14.26
2022-09-01T06:11:13.917Z,14.05
2022-09-01T06:12:16.410Z,14.10
2022-09-01T06:13:19.371Z,14.07
2022-09-01T06:14:22.077Z,14.10
2022-09-01T06:15:23.566Z,13.95
2022-09-01T06:16:25.781Z,14.14
2022-09-01T06:17:28.609Z,14.21
2022-09-01T06:18:30.106Z,14.15
2022-09-01T06:19:36.710Z,14.11
2022-09-01T06:20:39.862Z,13.99
2022-09-01T06:21:42.709Z,14.03
2022-09-01T06:22:44.833Z,14.03
2022-09-01T06:23:46.337Z,14.04
2022-09-01T06:24:53.272Z,14.05
2022-09-01T06:25:57.463Z,14.14
2022-09-01T06:26:58.939Z,14.09
2022-09-01T06:28:00.477Z,14.28
2022-09-01T06:29:04.622Z,14.33
2022-09-01T06:30:07.594Z,14.34
2022-09-01T06:31:09.310Z,14.36
2022-09-01T06:32:10.980Z,14.26
2022-09-01T06:33:13.289Z,14.31
2022-09-01T06:34:14.789Z,14.34
2022-09-01T06:35:16.602Z,14.17
2022-09-01T06:36:18.098Z,14.33
2022-09-01T06:37:20.948Z,14.38
2022-09-01T06:38:22.408Z,14.35
2022-09-01T06:39:23.898Z,14.43
2022-09-01T06:40:25.607Z,14.41
2022-09-01T06:41:27.981Z,14.47
2022-09-01T06:42:29.471Z,14.56
2022-09-01T06:43:31.247Z,14.70
2022-09-01T06:44:32.835Z,14.56
2022-09-01T06:45:39.424Z,14.62
2022-09-01T06:46:41.006Z,14.56
2022-09-01T06:47:43.031Z,14.77
2022-09-01T06:48:44.495Z,14.58
2022-09-01T06:49:46.077Z,14.61
2022-09-01T06:52:09.366Z,14.17
2022-09-01T06:54:34.735Z,14.30
2022-09-01T06:55:38.184Z,14.48
2022-09-01T06:58:03.735Z,14.25
2022-09-01T06:59:06.375Z,14.36
2022-09-01T07:00:11.076Z,14.59
2022-09-01T07:01:13.562Z,14.78
2022-09-01T07:02:17.467Z,14.89
2022-09-01T07:03:19.554Z,14.98
2022-09-01T07:04:21.198Z,14.93
2022-09-01T07:07:53.535Z,14.87
2022-09-01T07:08:09.584Z,14.88
2022-09-01T07:10:34.677Z,15.14
2022-09-01T07:12:37.356Z,15.04
2022-09-01T07:13:19.294Z,14.92
2022-09-01T07:14:20.893Z,15.15
2022-09-01T07:16:52.082Z,14.97
2022-09-01T07:17:56.596Z,14.90
2022-09-01T07:19:00.160Z,15.04
2022-09-01T07:21:41.940Z,15.43
2022-09-01T07:24:10.414Z,15.38
2022-09-01T07:25:34.985Z,15.39
2022-09-01T07:26:50.103Z,15.34
2022-09-01T07:27:51.786Z,15.44
2022-09-01T07:30:24.167Z,15.19
2022-09-01T07:32:49.912Z,15.38
2022-09-01T07:35:16.516Z,15.08
2022-09-01T07:36:26.975Z,15.03
2022-09-01T07:39:48.824Z,14.90
2022-09-01T07:39:57.604Z,14.73
2022-09-01T07:42:31.866Z,14.99
2022-09-01T07:44:04.822Z,15.05
2022-09-01T07:46:37.708Z,14.87
2022-09-01T07:47:55.233Z,15.04
2022-09-01T07:50:40.376Z,15.50
2022-09-01T07:51:40.637Z,15.30
2022-09-01T07:52:42.739Z,14.99
2022-09-01T07:53:44.824Z,15.07
2022-09-01T07:54:46.306Z,15.34
2022-09-01T07:55:49.341Z,15.49
2022-09-01T07:56:52.184Z,15.68
2022-09-01T07:57:54.987Z,15.72
2022-09-01T07:58:56.708Z,15.70
2022-09-01T07:59:58.221Z,15.63
2022-09-01T08:01:00.148Z,15.90
2022-09-01T08:02:01.791Z,15.71
2022-09-01T08:03:03.416Z,15.67
2022-09-01T08:04:04.955Z,15.34
2022-09-01T08:05:07.427Z,15.65
2022-09-01T08:06:11.159Z,15.45
2022-09-01T08:07:15.975Z,15.36
2022-09-01T08:08:19.977Z,15.30
2022-09-01T08:09:37.736Z,14.82
2022-09-01T08:10:40.529Z,15.06
2022-09-01T08:13:04.854Z,15.27
2022-09-01T08:14:07.819Z,15.39
2022-09-01T08:15:41.093Z,15.39
2022-09-01T08:16:39.313Z,15.46
2022-09-01T08:17:57.055Z,15.56
2022-09-01T08:18:59.338Z,15.44
2022-09-01T08:20:01.210Z,15.45
2022-09-01T08:21:06.595Z,15.40
2022-09-01T08:22:08.111Z,15.32
2022-09-01T08:23:09.572Z,15.35
2022-09-01T08:24:11.100Z,15.45
2022-09-01T08:25:12.832Z,15.38
2022-09-01T08:26:16.539Z,15.51
2022-09-01T08:27:18.214Z,15.42
2022-09-01T08:28:26.601Z,15.53
2022-09-01T08:29:28.524Z,15.32
2022-09-01T08:30:31.375Z,15.49
2022-09-01T08:31:32.978Z,15.53
2022-09-01T08:32:35.415Z,15.42
2022-09-01T08:33:37.020Z,15.27
2022-09-01T08:34:38.580Z,15.32
2022-09-01T08:35:41.528Z,15.42
2022-09-01T08:36:43.034Z,15.64
2022-09-01T08:37:44.675Z,15.58
2022-09-01T08:38:46.223Z,15.55
2022-09-01T08:39:48.651Z,15.53
2022-09-01T08:40:56.100Z,15.63
2022-09-01T08:42:08.648Z,15.70
2022-09-01T08:43:19.457Z,15.37
2022-09-01T08:44:37.476Z,15.52
2022-09-01T08:45:47.350Z,15.46
2022-09-01T08:46:54.154Z,15.45
2022-09-01T08:48:29.198Z,15.39
2022-09-01T08:49:25.694Z,15.33
2022-09-01T08:50:28.964Z,15.19
2022-09-01T08:51:38.073Z,15.49
2022-09-01T08:52:45.124Z,15.48
2022-09-01T08:53:52.353Z,15.48
2022-09-01T08:54:57.699Z,15.50
2022-09-01T08:55:59.689Z,15.73
2022-09-01T08:57:05.600Z,15.74
2022-09-01T08:58:10.050Z,15.66
2022-09-01T08:59:11.904Z,15.89
2022-09-01T09:00:17.664Z,15.98
2022-09-01T09:01:25.530Z,16.24
2022-09-01T09:02:37.891Z,16.33
2022-09-01T09:03:46.899Z,15.79
2022-09-01T09:04:58.874Z,15.87
2022-09-01T09:06:11.775Z,15.89
2022-09-01T09:07:26.945Z,15.88
2022-09-01T09:08:53.029Z,16.07
2022-09-01T09:09:59.049Z,16.06
2022-09-01T09:11:03.652Z,15.97
2022-09-01T09:12:16.550Z,16.00
2022-09-01T09:13:24.459Z,16.07
2022-09-01T09:14:36.885Z,16.11
2022-09-01T09:15:43.783Z,16.08
2022-09-01T09:16:47.919Z,16.11
2022-09-01T09:18:01.381Z,15.93
2022-09-01T09:19:07.741Z,15.87
2022-09-01T09:20:09.815Z,15.95
2022-09-01T09:21:16.757Z,15.98
2022-09-01T09:22:20.467Z,16.13
2022-09-01T09:23:28.642Z,15.76
2022-09-01T09:24:39.266Z,16.10
2022-09-01T09:25:41.840Z,16.31
2022-09-01T09:26:48.357Z,16.47
2022-09-01T09:28:00.461Z,16.46
2022-09-01T09:29:02.473Z,16.50
2022-09-01T09:30:11.357Z,16.41
2022-09-01T09:31:29.969Z,16.40
2022-09-01T09:33:19.918Z,16.51
2022-09-01T09:34:17.919Z,16.45
2022-09-01T09:35:23.884Z,16.07
2022-09-01T09:36:31.128Z,16.30
2022-09-01T09:37:32.614Z,16.56
2022-09-01T09:38:34.212Z,16.54
2022-09-01T09:39:36.909Z,16.49
2022-09-01T09:41:00.068Z,16.20
2022-09-01T09:42:07.571Z,16.23
2022-09-01T09:43:09.048Z,16.31
2022-09-01T09:44:22.785Z,16.09
2022-09-01T09:45:28.039Z,16.30
2022-09-01T09:46:38.237Z,16.22
2022-09-01T09:47:45.133Z,16.30
2022-09-01T09:48:47.391Z,16.14
2022-09-01T09:49:49.080Z,16.06
2022-09-01T09:50:50.968Z,16.30
2022-09-01T09:51:54.350Z,16.37
2022-09-01T09:53:16.188Z,16.61
2022-09-01T09:54:23.850Z,16.55
2022-09-01T09:55:27.788Z,16.50
2022-09-01T09:56:29.319Z,16.46
2022-09-01T09:57:39.498Z,16.34
2022-09-01T09:58:42.599Z,16.42
2022-09-01T09:59:58.707Z,16.15
2022-09-01T10:01:07.084Z,16.24
2022-09-01T10:02:27.837Z,16.70
2022-09-01T10:03:40.810Z,16.73
2022-09-01T10:04:42.547Z,16.79
2022-09-01T10:05:46.293Z,16.51
2022-09-01T10:06:47.835Z,16.49
2022-09-01T10:07:49.906Z,16.65
2022-09-01T10:08:51.401Z,16.90
2022-09-01T10:09:54.501Z,16.88
2022-09-01T10:10:57.673Z,16.74
2022-09-01T10:12:01.934Z,16.87
2022-09-01T10:13:03.950Z,16.69
2022-09-01T10:14:10.553Z,16.65
2022-09-01T10:15:18.734Z,16.65
2022-09-01T10:16:27.790Z,16.70
2022-09-01T10:17:35.915Z,16.52
2022-09-01T10:18:40.768Z,16.62
2022-09-01T10:19:49.393Z,16.47
2022-09-01T10:20:56.281Z,16.67
2022-09-01T10:21:57.828Z,17.05
2022-09-01T10:23:03.819Z,17.03
2022-09-01T10:24:17.676Z,17.16
2022-09-01T10:25:25.073Z,17.16
2022-09-01T10:26:32.748Z,17.08
2022-09-01T10:27:37.705Z,17.23
2022-09-01T10:28:49.951Z,17.35
2022-09-01T10:30:13.496Z,17.29
2022-09-01T10:31:15.628Z,17.32
2022-09-01T10:32:34.949Z,17.20
2022-09-01T10:33:41.022Z,17.31
2022-09-01T10:34:43.781Z,17.26
2022-09-01T10:35:47.921Z,17.16
2022-09-01T10:36:55.743Z,17.00
2022-09-01T10:38:00.810Z,16.76
2022-09-01T10:39:06.228Z,16.62
2022-09-01T10:40:20.514Z,16.67
2022-09-01T10:41:47.637Z,16.80
2022-09-01T10:42:52.065Z,16.72
2022-09-01T10:43:54.007Z,16.31
2022-09-01T10:44:57.751Z,15.91
2022-09-01T10:46:06.025Z,15.69
2022-09-01T10:47:26.483Z,16.04
2022-09-01T10:48:32.077Z,15.84
2022-09-01T10:50:02.244Z,15.81
2022-09-01T10:51:51.471Z,16.31
2022-09-01T10:53:05.224Z,16.81
2022-09-01T10:54:07.025Z,16.70
2022-09-01T10:55:14.899Z,17.30
2022-09-01T10:56:28.170Z,17.14
2022-09-01T10:57:50.943Z,16.99
2022-09-01T11:02:35.366Z,17.05
2022-09-01T11:04:00.745Z,16.81
2022-09-01T11:05:18.348Z,16.83
2022-09-01T11:08:41.355Z,17.28
2022-09-01T11:10:32.041Z,17.51
2022-09-01T11:11:43.129Z,17.44
2022-09-01T11:13:10.832Z,17.59
2022-09-01T11:14:19.212Z,17.62
2022-09-01T11:15:37.117Z,17.48
2022-09-01T11:16:48.079Z,17.52
2022-09-01T11:17:56.561Z,17.72
2022-09-01T11:19:37.355Z,17.96
2022-09-01T11:20:42.762Z,18.24
2022-09-01T11:21:44.809Z,18.10
2022-09-01T11:22:59.841Z,18.39
2022-09-01T11:25:11.077Z,18.12
2022-09-01T11:26:53.381Z,17.98
2022-09-01T11:28:00.947Z,18.16
2022-09-01T11:29:03.113Z,18.02
2022-09-01T11:30:09.017Z,17.98
2022-09-01T11:31:19.039Z,18.12
2022-09-01T11:32:24.577Z,17.90
2022-09-01T11:33:37.857Z,18.07
2022-09-01T11:34:44.459Z,17.88
2022-09-01T11:35:47.818Z,17.91
2022-09-01T11:36:58.642Z,18.27
2022-09-01T11:38:04.610Z,18.25
2022-09-01T11:39:16.316Z,18.38
2022-09-01T11:40:23.158Z,17.88
2022-09-01T11:41:29.436Z,18.28
2022-09-01T11:42:39.175Z,18.42
2022-09-01T11:43:42.058Z,17.93
2022-09-01T11:44:49.519Z,18.10
2022-09-01T11:46:00.771Z,18.39
2022-09-01T11:47:09.489Z,18.31
2022-09-01T11:48:14.545Z,18.15
2022-09-01T11:49:27.239Z,18.10
2022-09-01T11:50:31.270Z,18.30
2022-09-01T11:51:44.311Z,18.57
2022-09-01T11:52:54.805Z,18.45
2022-09-01T11:53:59.576Z,18.35
2022-09-01T11:55:01.729Z,18.46
2022-09-01T11:56:15.023Z,18.61
2022-09-01T11:57:28.186Z,18.41
2022-09-01T11:58:32.867Z,18.50
2022-09-01T11:59:37.109Z,18.93
2022-09-01T12:00:40.946Z,18.89
2022-09-01T12:01:42.482Z,19.00
2022-09-01T12:02:46.898Z,19.09
2022-09-01T12:03:50.649Z,19.18
2022-09-01T12:04:53.716Z,18.66
2022-09-01T12:05:58.155Z,18.69
2022-09-01T12:07:04.036Z,18.18
2022-09-01T12:08:14.553Z,18.41
2022-09-01T12:09:16.092Z,18.38
2022-09-01T12:10:21.832Z,18.15
2022-09-01T12:11:25.602Z,17.73
2022-09-01T12:12:30.424Z,18.02
2022-09-01T12:13:32.473Z,17.93
2022-09-01T12:14:54.936Z,17.97
2022-09-01T12:16:17.055Z,18.19
2022-09-01T12:17:20.308Z,18.28
2022-09-01T12:18:24.505Z,17.75
2022-09-01T12:19:28.161Z,17.96
2022-09-01T12:20:32.116Z,17.61
2022-09-01T12:21:36.638Z,17.93
2022-09-01T12:22:42.849Z,18.05
2022-09-01T12:23:44.409Z,18.06
2022-09-01T12:24:48.047Z,18.11
2022-09-01T12:25:50.173Z,18.61
2022-09-01T12:26:54.133Z,18.57
2022-09-01T12:27:56.435Z,18.69
2022-09-01T12:28:58.286Z,18.79
2022-09-01T12:29:59.860Z,18.30
2022-09-01T12:31:03.170Z,18.12
2022-09-01T12:32:09.367Z,17.95
2022-09-01T12:33:28.288Z,17.65
2022-09-01T12:34:39.654Z,17.51
2022-09-01T12:35:40.973Z,17.36
2022-09-01T12:36:42.482Z,17.12
2022-09-01T12:37:45.629Z,17.37
2022-09-01T12:38:47.652Z,16.92
2022-09-01T12:39:50.816Z,17.13
2022-09-01T12:40:54.583Z,17.60
2022-09-01T12:42:05.704Z,17.81
2022-09-01T12:43:07.918Z,18.09
2022-09-01T12:44:30.888Z,18.13
2022-09-01T12:45:40.499Z,18.03
2022-09-01T12:46:44.283Z,18.06
2022-09-01T12:47:50.796Z,18.18
2022-09-01T12:48:52.429Z,18.38
2022-09-01T12:49:55.698Z,18.39
2022-09-01T12:50:59.233Z,18.24
2022-09-01T12:52:14.637Z,18.30
2022-09-01T12:53:22.164Z,18.58
2022-09-01T12:54:25.703Z,18.66
2022-09-01T12:56:51.435Z,18.84
2022-09-01T12:57:55.665Z,18.99
2022-09-01T12:59:14.395Z,18.71
2022-09-01T13:00:21.848Z,18.91
2022-09-01T13:01:30.563Z,19.04
2022-09-01T13:02:34.840Z,18.84
2022-09-01T13:03:36.552Z,17.92
2022-09-01T13:04:38.089Z,17.82
2022-09-01T13:05:42.548Z,17.37
2022-09-01T13:06:44.328Z,16.93
2022-09-01T13:07:45.890Z,17.11
2022-09-01T13:08:48.753Z,17.18
2022-09-01T13:09:50.213Z,17.47
2022-09-01T13:10:54.057Z,17.22
2022-09-01T13:12:10.375Z,17.48
2022-09-01T13:13:13.708Z,17.96
2022-09-01T13:14:16.118Z,18.02
2022-09-01T13:15:18.511Z,18.29
2022-09-01T13:16:20.092Z,17.67
2022-09-01T13:17:21.597Z,17.53
2022-09-01T13:18:25.735Z,17.46
2022-09-01T13:19:30.070Z,17.44
2022-09-01T13:20:32.229Z,17.23
2022-09-01T13:21:35.789Z,17.24
2022-09-01T13:22:37.583Z,17.41
2022-09-01T13:23:39.102Z,17.59
2022-09-01T13:24:41.916Z,17.59
2022-09-01T13:25:43.868Z,17.70
2022-09-01T13:27:20.128Z,17.62
2022-09-01T13:28:07.541Z,17.86
2022-09-01T13:29:09.014Z,18.02
2022-09-01T13:30:12.225Z,17.83
2022-09-01T13:31:29.950Z,18.20
2022-09-01T13:32:31.997Z,18.26
2022-09-01T13:34:09.183Z,18.19
2022-09-01T13:34:57.101Z,18.16
2022-09-01T13:35:58.769Z,18.33
2022-09-01T13:37:00.273Z,18.55
2022-09-01T13:38:01.778Z,18.39
2022-09-01T13:39:03.297Z,18.16
2022-09-01T13:40:07.308Z,18.45
2022-09-01T13:41:08.800Z,18.56
2022-09-01T13:42:10.305Z,18.69
2022-09-01T13:43:11.827Z,18.76
2022-09-01T13:44:13.305Z,18.73
2022-09-01T13:45:16.510Z,18.72
2022-09-01T13:46:18.146Z,18.71
2022-09-01T13:47:35.410Z,19.02
2022-09-01T13:50:07.924Z,19.15
2022-09-01T13:51:15.651Z,18.85
2022-09-01T13:52:19.273Z,18.11
2022-09-01T13:53:21.727Z,17.89
2022-09-01T13:54:23.249Z,17.47
2022-09-01T13:55:27.931Z,17.49
2022-09-01T13:56:29.444Z,17.43
2022-09-01T13:57:35.720Z,17.58
2022-09-01T13:58:38.137Z,17.79
2022-09-01T13:59:39.638Z,17.88
2022-09-01T14:00:43.720Z,17.76
2022-09-01T14:01:45.212Z,17.65
2022-09-01T14:02:48.934Z,17.63
2022-09-01T14:03:52.101Z,17.83
2022-09-01T14:04:54.176Z,17.96
2022-09-01T14:05:55.718Z,17.88
2022-09-01T14:06:57.236Z,17.86
2022-09-01T14:08:00.773Z,18.09
2022-09-01T14:09:04.799Z,17.87
2022-09-01T14:10:07.540Z,17.85
2022-09-01T14:11:16.573Z,17.73
2022-09-01T14:12:18.067Z,17.80
2022-09-01T14:13:21.292Z,17.42
2022-09-01T14:14:23.138Z,17.84
2022-09-01T14:15:27.372Z,17.81
2022-09-01T14:16:29.201Z,17.76
2022-09-01T14:17:30.814Z,17.81
2022-09-01T14:18:32.285Z,17.78
2022-09-01T14:19:33.794Z,17.75
2022-09-01T14:20:37.685Z,17.71
2022-09-01T14:21:39.362Z,17.79
2022-09-01T14:22:40.994Z,17.89
2022-09-01T14:23:42.988Z,17.95
2022-09-01T14:24:44.514Z,17.96
2022-09-01T14:25:48.108Z,18.27
2022-09-01T14:26:50.930Z,18.20
2022-09-01T14:27:52.413Z,18.32